sensor_id;sensor_type;location;lat;lon;timestamp;pressure;altitude;pressure_sealevel;temperature;humidity
35489;BME280;21602;55.670;37.578;2023-03-25T00:00:21;98008.00;;;6.54;89.50
35489;BME280;21602;55.670;37.578;2023-03-25T00:02:50;98006.56;;;6.47;89.95
35489;BME280;21602;55.670;37.578;2023-03-25T00:05:20;98007.81;;;6.44;89.84
35489;BME280;21602;55.670;37.578;2023-03-25T00:07:49;98005.19;;;6.44;89.92
35489;BME280;21602;55.670;37.578;2023-03-25T00:10:15;98004.38;;;6.44;90.14
35489;BME280;21602;55.670;37.578;2023-03-25T00:12:41;98000.13;;;6.43;90.03
35489;BME280;21602;55.670;37.578;2023-03-25T00:15:08;97995.88;;;6.41;90.18
35489;BME280;21602;55.670;37.578;2023-03-25T00:17:35;97997.13;;;6.39;90.30
35489;BME280;21602;55.670;37.578;2023-03-25T00:20:05;97995.53;;;6.38;90.23
35489;BME280;21602;55.670;37.578;2023-03-25T00:22:33;97993.34;;;6.35;90.57
35489;BME280;21602;55.670;37.578;2023-03-25T00:25:07;97988.06;;;6.35;90.48
35489;BME280;21602;55.670;37.578;2023-03-25T00:27:34;97985.06;;;6.31;90.50
35489;BME280;21602;55.670;37.578;2023-03-25T00:29:59;97972.88;;;6.30;90.57
35489;BME280;21602;55.670;37.578;2023-03-25T00:32:25;97977.94;;;6.32;90.46
35489;BME280;21602;55.670;37.578;2023-03-25T00:34:54;97972.06;;;6.30;90.67
35489;BME280;21602;55.670;37.578;2023-03-25T00:37:20;97961.13;;;6.26;90.49
35489;BME280;21602;55.670;37.578;2023-03-25T00:39:46;97954.22;;;6.25;90.73
35489;BME280;21602;55.670;37.578;2023-03-25T00:42:16;97961.97;;;6.27;90.95
35489;BME280;21602;55.670;37.578;2023-03-25T00:44:42;97954.31;;;6.30;91.00
35489;BME280;21602;55.670;37.578;2023-03-25T00:47:08;97964.69;;;6.32;90.78
35489;BME280;21602;55.670;37.578;2023-03-25T00:49:36;97942.66;;;6.31;90.68
35489;BME280;21602;55.670;37.578;2023-03-25T00:52:02;97947.16;;;6.31;90.64
35489;BME280;21602;55.670;37.578;2023-03-25T00:54:28;97944.44;;;6.26;90.63
35489;BME280;21602;55.670;37.578;2023-03-25T00:56:54;97943.88;;;6.24;90.78
35489;BME280;21602;55.670;37.578;2023-03-25T00:59:20;97944.94;;;6.23;90.81
35489;BME280;21602;55.670;37.578;2023-03-25T01:01:46;97938.50;;;6.19;91.12
35489;BME280;21602;55.670;37.578;2023-03-25T01:04:12;97937.69;;;6.18;91.25
35489;BME280;21602;55.670;37.578;2023-03-25T01:06:40;97941.06;;;6.13;91.33
35489;BME280;21602;55.670;37.578;2023-03-25T01:09:11;97933.34;;;6.12;91.38
35489;BME280;21602;55.670;37.578;2023-03-25T01:11:39;97916.97;;;6.15;91.35
35489;BME280;21602;55.670;37.578;2023-03-25T01:14:09;97918.81;;;6.14;91.67
35489;BME280;21602;55.670;37.578;2023-03-25T01:16:37;97916.50;;;6.18;91.70
35489;BME280;21602;55.670;37.578;2023-03-25T01:19:03;97920.28;;;6.22;91.55
35489;BME280;21602;55.670;37.578;2023-03-25T01:21:30;97926.94;;;6.25;91.33
35489;BME280;21602;55.670;37.578;2023-03-25T01:23:59;97919.22;;;6.23;91.59
35489;BME280;21602;55.670;37.578;2023-03-25T01:26:25;97924.53;;;6.23;91.71
35489;BME280;21602;55.670;37.578;2023-03-25T01:28:51;97920.84;;;6.24;91.86
35489;BME280;21602;55.670;37.578;2023-03-25T01:31:18;97917.38;;;6.24;91.98
35489;BME280;21602;55.670;37.578;2023-03-25T01:33:44;97915.28;;;6.26;91.75
35489;BME280;21602;55.670;37.578;2023-03-25T01:36:11;97914.00;;;6.28;92.07
35489;BME280;21602;55.670;37.578;2023-03-25T01:38:40;97903.16;;;6.30;92.03
35489;BME280;21602;55.670;37.578;2023-03-25T01:41:07;97892.63;;;6.35;91.92
35489;BME280;21602;55.670;37.578;2023-03-25T01:43:38;97892.16;;;6.38;92.13
35489;BME280;21602;55.670;37.578;2023-03-25T01:46:04;97886.94;;;6.43;91.79
35489;BME280;21602;55.670;37.578;2023-03-25T01:48:36;97883.81;;;6.46;91.73
35489;BME280;21602;55.670;37.578;2023-03-25T01:51:07;97876.16;;;6.50;91.69
35489;BME280;21602;55.670;37.578;2023-03-25T01:53:35;97882.25;;;6.50;91.69
35489;BME280;21602;55.670;37.578;2023-03-25T01:56:02;97871.97;;;6.54;91.51
35489;BME280;21602;55.670;37.578;2023-03-25T01:58:32;97862.75;;;6.56;91.63
35489;BME280;21602;55.670;37.578;2023-03-25T02:01:00;97847.91;;;6.55;91.55
35489;BME280;21602;55.670;37.578;2023-03-25T02:03:30;97851.09;;;6.57;91.72
35489;BME280;21602;55.670;37.578;2023-03-25T02:06:08;97855.34;;;6.58;91.46
35489;BME280;21602;55.670;37.578;2023-03-25T02:08:39;97849.81;;;6.60;91.33
35489;BME280;21602;55.670;37.578;2023-03-25T02:11:07;97846.34;;;6.59;91.36
35489;BME280;21602;55.670;37.578;2023-03-25T02:13:37;97849.00;;;6.59;91.49
35489;BME280;21602;55.670;37.578;2023-03-25T02:27:26;97844.41;;;6.55;91.93
35489;BME280;21602;55.670;37.578;2023-03-25T02:44:11;97804.91;;;6.53;91.85
35489;BME280;21602;55.670;37.578;2023-03-25T02:46:49;97796.69;;;6.55;92.12
35489;BME280;21602;55.670;37.578;2023-03-25T02:49:28;97799.19;;;6.61;92.25
35489;BME280;21602;55.670;37.578;2023-03-25T02:52:00;97794.50;;;6.68;92.06
35489;BME280;21602;55.670;37.578;2023-03-25T02:54:30;97790.88;;;6.75;91.95
35489;BME280;21602;55.670;37.578;2023-03-25T02:56:59;97790.41;;;6.83;91.77
35489;BME280;21602;55.670;37.578;2023-03-25T02:59:26;97789.13;;;6.85;91.51
35489;BME280;21602;55.670;37.578;2023-03-25T03:01:58;97787.22;;;6.81;91.50
35489;BME280;21602;55.670;37.578;2023-03-25T03:04:25;97788.34;;;6.85;91.59
35489;BME280;21602;55.670;37.578;2023-03-25T03:06:51;97781.72;;;6.87;91.54
35489;BME280;21602;55.670;37.578;2023-03-25T03:09:56;97778.91;;;6.94;91.50
35489;BME280;21602;55.670;37.578;2023-03-25T03:16:07;97773.34;;;6.96;91.36
35489;BME280;21602;55.670;37.578;2023-03-25T03:18:18;97758.22;;;6.96;91.47
35489;BME280;21602;55.670;37.578;2023-03-25T03:21:17;97750.88;;;7.03;91.46
35489;BME280;21602;55.670;37.578;2023-03-25T03:23:50;97755.63;;;7.01;91.45
35489;BME280;21602;55.670;37.578;2023-03-25T03:31:26;97740.47;;;7.24;91.24
35489;BME280;21602;55.670;37.578;2023-03-25T03:34:00;97727.50;;;7.27;91.11
35489;BME280;21602;55.670;37.578;2023-03-25T03:36:33;97731.25;;;7.31;91.09
35489;BME280;21602;55.670;37.578;2023-03-25T03:39:06;97719.34;;;7.39;90.90
35489;BME280;21602;55.670;37.578;2023-03-25T03:41:37;97718.91;;;7.47;90.74
35489;BME280;21602;55.670;37.578;2023-03-25T03:44:11;97714.69;;;7.51;90.79
35489;BME280;21602;55.670;37.578;2023-03-25T03:46:54;97713.13;;;7.55;90.26
35489;BME280;21602;55.670;37.578;2023-03-25T03:49:52;97712.03;;;7.51;90.20
35489;BME280;21602;55.670;37.578;2023-03-25T03:52:17;97702.50;;;7.55;90.13
35489;BME280;21602;55.670;37.578;2023-03-25T03:55:07;97695.06;;;7.57;90.31
35489;BME280;21602;55.670;37.578;2023-03-25T03:57:45;97690.81;;;7.56;90.19
35489;BME280;21602;55.670;37.578;2023-03-25T04:00:17;97693.47;;;7.56;90.31
35489;BME280;21602;55.670;37.578;2023-03-25T04:02:57;97684.50;;;7.62;89.92
35489;BME280;21602;55.670;37.578;2023-03-25T04:05:23;97678.66;;;7.60;89.94
35489;BME280;21602;55.670;37.578;2023-03-25T04:08:12;97673.34;;;7.60;89.87
35489;BME280;21602;55.670;37.578;2023-03-25T04:10:55;97668.56;;;7.62;90.49
35489;BME280;21602;55.670;37.578;2023-03-25T04:13:29;97673.94;;;7.73;89.67
35489;BME280;21602;55.670;37.578;2023-03-25T04:15:58;97662.50;;;7.72;89.53
35489;BME280;21602;55.670;37.578;2023-03-25T04:18:26;97662.25;;;7.74;89.69
35489;BME280;21602;55.670;37.578;2023-03-25T04:20:54;97668.91;;;7.76;89.64
35489;BME280;21602;55.670;37.578;2023-03-25T04:23:20;97651.91;;;7.77;89.47
35489;BME280;21602;55.670;37.578;2023-03-25T04:25:47;97656.47;;;7.82;89.49
35489;BME280;21602;55.670;37.578;2023-03-25T04:28:19;97641.34;;;7.87;89.77
35489;BME280;21602;55.670;37.578;2023-03-25T04:30:46;97640.53;;;7.87;89.09
35489;BME280;21602;55.670;37.578;2023-03-25T04:33:22;97637.91;;;7.92;89.43
35489;BME280;21602;55.670;37.578;2023-03-25T04:35:49;97637.97;;;8.02;89.02
35489;BME280;21602;55.670;37.578;2023-03-25T04:38:17;97638.00;;;8.07;88.46
35489;BME280;21602;55.670;37.578;2023-03-25T04:40:45;97623.66;;;8.08;88.59
35489;BME280;21602;55.670;37.578;2023-03-25T04:43:15;97623.97;;;8.17;88.53
35489;BME280;21602;55.670;37.578;2023-03-25T04:45:42;97617.81;;;8.16;88.05
35489;BME280;21602;55.670;37.578;2023-03-25T04:48:23;97623.97;;;8.17;87.87
35489;BME280;21602;55.670;37.578;2023-03-25T04:50:55;97616.53;;;8.24;87.91
35489;BME280;21602;55.670;37.578;2023-03-25T04:53:24;97600.63;;;8.34;87.44
35489;BME280;21602;55.670;37.578;2023-03-25T04:55:50;97594.84;;;8.42;87.33
35489;BME280;21602;55.670;37.578;2023-03-25T04:58:16;97591.38;;;8.42;86.88
35489;BME280;21602;55.670;37.578;2023-03-25T05:00:45;97590.84;;;8.45;86.72
35489;BME280;21602;55.670;37.578;2023-03-25T05:03:14;97584.72;;;8.50;86.78
35489;BME280;21602;55.670;37.578;2023-03-25T05:05:40;97585.56;;;8.50;86.80
35489;BME280;21602;55.670;37.578;2023-03-25T05:08:07;97591.69;;;8.56;86.14
35489;BME280;21602;55.670;37.578;2023-03-25T05:10:34;97581.03;;;8.61;86.12
35489;BME280;21602;55.670;37.578;2023-03-25T05:13:06;97584.78;;;8.65;86.24
35489;BME280;21602;55.670;37.578;2023-03-25T05:15:34;97589.81;;;8.71;86.10
35489;BME280;21602;55.670;37.578;2023-03-25T05:18:14;97584.00;;;8.80;85.95
35489;BME280;21602;55.670;37.578;2023-03-25T05:20:42;97595.16;;;8.77;85.73
35489;BME280;21602;55.670;37.578;2023-03-25T05:23:11;97596.50;;;8.69;86.19
35489;BME280;21602;55.670;37.578;2023-03-25T05:25:44;97602.59;;;8.64;86.33
35489;BME280;21602;55.670;37.578;2023-03-25T05:28:10;97603.63;;;8.63;86.35
35489;BME280;21602;55.670;37.578;2023-03-25T05:30:43;97602.06;;;8.67;86.34
35489;BME280;21602;55.670;37.578;2023-03-25T05:33:12;97586.38;;;8.66;86.22
35489;BME280;21602;55.670;37.578;2023-03-25T05:35:40;97600.19;;;8.63;86.47
35489;BME280;21602;55.670;37.578;2023-03-25T05:38:11;97594.63;;;8.69;86.82
35489;BME280;21602;55.670;37.578;2023-03-25T05:40:45;97597.81;;;8.71;86.39
35489;BME280;21602;55.670;37.578;2023-03-25T05:43:13;97587.16;;;8.71;86.44
35489;BME280;21602;55.670;37.578;2023-03-25T05:45:40;97587.97;;;8.67;86.75
35489;BME280;21602;55.670;37.578;2023-03-25T05:48:07;97578.13;;;8.67;87.00
35489;BME280;21602;55.670;37.578;2023-03-25T05:50:35;97574.94;;;8.70;86.90
35489;BME280;21602;55.670;37.578;2023-03-25T05:53:03;97579.75;;;8.74;87.51
35489;BME280;21602;55.670;37.578;2023-03-25T05:55:29;97572.56;;;8.79;86.77
35489;BME280;21602;55.670;37.578;2023-03-25T05:57:55;97574.44;;;8.84;86.72
35489;BME280;21602;55.670;37.578;2023-03-25T06:00:21;97579.47;;;8.90;86.59
35489;BME280;21602;55.670;37.578;2023-03-25T06:02:48;97575.50;;;8.98;86.15
35489;BME280;21602;55.670;37.578;2023-03-25T06:05:15;97578.69;;;9.00;86.36
35489;BME280;21602;55.670;37.578;2023-03-25T06:07:45;97577.59;;;9.11;86.25
35489;BME280;21602;55.670;37.578;2023-03-25T06:10:13;97579.75;;;9.14;85.87
35489;BME280;21602;55.670;37.578;2023-03-25T06:12:44;97577.31;;;9.33;86.12
35489;BME280;21602;55.670;37.578;2023-03-25T06:15:13;97575.97;;;9.46;85.55
35489;BME280;21602;55.670;37.578;2023-03-25T06:17:39;97574.63;;;9.64;85.20
35489;BME280;21602;55.670;37.578;2023-03-25T06:20:10;97570.56;;;9.77;84.41
35489;BME280;21602;55.670;37.578;2023-03-25T06:22:41;97564.13;;;9.93;84.36
35489;BME280;21602;55.670;37.578;2023-03-25T06:25:11;97563.03;;;9.99;83.71
35489;BME280;21602;55.670;37.578;2023-03-25T06:27:40;97570.47;;;10.07;84.06
35489;BME280;21602;55.670;37.578;2023-03-25T06:30:18;97560.34;;;10.04;83.97
35489;BME280;21602;55.670;37.578;2023-03-25T06:32:44;97567.81;;;10.02;84.06
35489;BME280;21602;55.670;37.578;2023-03-25T06:35:17;97557.16;;;10.02;83.99
35489;BME280;21602;55.670;37.578;2023-03-25T06:37:46;97566.72;;;10.08;83.82
35489;BME280;21602;55.670;37.578;2023-03-25T06:40:17;97562.22;;;10.04;83.74
35489;BME280;21602;55.670;37.578;2023-03-25T06:42:43;97559.03;;;9.96;84.23
35489;BME280;21602;55.670;37.578;2023-03-25T06:45:38;97559.88;;;9.87;84.48
35489;BME280;21602;55.670;37.578;2023-03-25T06:48:26;97555.91;;;9.79;84.87
35489;BME280;21602;55.670;37.578;2023-03-25T06:50:52;97562.31;;;9.78;85.09
35489;BME280;21602;55.670;37.578;2023-03-25T06:53:18;97539.13;;;9.79;85.85
35489;BME280;21602;55.670;37.578;2023-03-25T06:55:45;97545.28;;;9.74;86.33
35489;BME280;21602;55.670;37.578;2023-03-25T06:58:11;97555.44;;;9.57;87.02
35489;BME280;21602;55.670;37.578;2023-03-25T07:00:37;97539.50;;;9.46;87.55
35489;BME280;21602;55.670;37.578;2023-03-25T07:03:03;97544.03;;;9.41;88.84
35489;BME280;21602;55.670;37.578;2023-03-25T07:05:29;97544.28;;;9.39;89.46
35489;BME280;21602;55.670;37.578;2023-03-25T07:07:56;97547.75;;;9.35;89.63
35489;BME280;21602;55.670;37.578;2023-03-25T07:10:23;97545.38;;;9.33;89.86
35489;BME280;21602;55.670;37.578;2023-03-25T07:12:50;97547.50;;;9.31;90.09
35489;BME280;21602;55.670;37.578;2023-03-25T07:15:16;97552.28;;;9.29;90.47
35489;BME280;21602;55.670;37.578;2023-03-25T07:17:45;97548.06;;;9.23;90.83
35489;BME280;21602;55.670;37.578;2023-03-25T07:20:14;97544.31;;;9.24;90.61
35489;BME280;21602;55.670;37.578;2023-03-25T07:23:17;97545.66;;;9.32;91.48
35489;BME280;21602;55.670;37.578;2023-03-25T07:26:02;97546.72;;;9.36;91.38
35489;BME280;21602;55.670;37.578;2023-03-25T07:28:28;97535.25;;;9.35;91.11
35489;BME280;21602;55.670;37.578;2023-03-25T07:31:14;97534.69;;;9.38;91.49
35489;BME280;21602;55.670;37.578;2023-03-25T07:33:41;97544.03;;;9.46;91.47
35489;BME280;21602;55.670;37.578;2023-03-25T07:36:08;97539.47;;;9.52;91.31
35489;BME280;21602;55.670;37.578;2023-03-25T07:38:35;97542.91;;;9.57;91.44
35489;BME280;21602;55.670;37.578;2023-03-25T07:41:09;97532.81;;;9.59;91.36
35489;BME280;21602;55.670;37.578;2023-03-25T07:43:36;97541.31;;;9.61;91.25
35489;BME280;21602;55.670;37.578;2023-03-25T07:46:21;97535.97;;;9.61;91.92
35489;BME280;21602;55.670;37.578;2023-03-25T07:48:47;97539.44;;;9.62;91.93
35489;BME280;21602;55.670;37.578;2023-03-25T07:51:16;97546.63;;;9.61;91.53
35489;BME280;21602;55.670;37.578;2023-03-25T07:53:45;97549.03;;;9.63;91.70
35489;BME280;21602;55.670;37.578;2023-03-25T07:56:30;97541.28;;;9.66;91.74
35489;BME280;21602;55.670;37.578;2023-03-25T07:58:56;97555.16;;;9.63;92.08
35489;BME280;21602;55.670;37.578;2023-03-25T08:01:40;97551.16;;;9.66;91.97
35489;BME280;21602;55.670;37.578;2023-03-25T08:04:06;97556.22;;;9.62;92.08
35489;BME280;21602;55.670;37.578;2023-03-25T08:06:34;97544.50;;;9.63;92.50
35489;BME280;21602;55.670;37.578;2023-03-25T08:09:00;97542.91;;;9.62;93.19
35489;BME280;21602;55.670;37.578;2023-03-25T08:11:26;97551.69;;;9.63;92.91
35489;BME280;21602;55.670;37.578;2023-03-25T08:13:52;97551.97;;;9.61;93.09
35489;BME280;21602;55.670;37.578;2023-03-25T08:16:39;97563.94;;;9.59;93.46
35489;BME280;21602;55.670;37.578;2023-03-25T08:19:43;97576.50;;;9.53;93.78
35489;BME280;21602;55.670;37.578;2023-03-25T08:22:09;97576.78;;;9.46;93.75
35489;BME280;21602;55.670;37.578;2023-03-25T08:24:35;97583.44;;;9.44;94.39
35489;BME280;21602;55.670;37.578;2023-03-25T08:27:20;97573.31;;;9.46;94.43
35489;BME280;21602;55.670;37.578;2023-03-25T08:30:23;97584.00;;;9.36;95.03
35489;BME280;21602;55.670;37.578;2023-03-25T08:32:51;97577.03;;;9.35;96.05
35489;BME280;21602;55.670;37.578;2023-03-25T08:35:30;97581.84;;;9.33;95.22
35489;BME280;21602;55.670;37.578;2023-03-25T08:38:03;97578.41;;;9.27;96.35
35489;BME280;21602;55.670;37.578;2023-03-25T08:40:35;97572.28;;;9.27;96.34
35489;BME280;21602;55.670;37.578;2023-03-25T08:43:05;97584.78;;;9.31;96.37
35489;BME280;21602;55.670;37.578;2023-03-25T08:45:31;97563.75;;;9.30;97.07
35489;BME280;21602;55.670;37.578;2023-03-25T08:47:59;97566.97;;;9.27;97.23
35489;BME280;21602;55.670;37.578;2023-03-25T08:50:26;97580.00;;;9.28;97.08
35489;BME280;21602;55.670;37.578;2023-03-25T08:52:52;97576.00;;;9.36;96.96
35489;BME280;21602;55.670;37.578;2023-03-25T08:55:25;97580.25;;;9.42;96.90
35489;BME280;21602;55.670;37.578;2023-03-25T08:57:51;97586.63;;;9.46;96.67
35489;BME280;21602;55.670;37.578;2023-03-25T09:00:17;97584.22;;;9.44;97.57
35489;BME280;21602;55.670;37.578;2023-03-25T09:02:49;97590.09;;;9.41;97.52
35489;BME280;21602;55.670;37.578;2023-03-25T09:05:18;97597.31;;;9.41;97.39
35489;BME280;21602;55.670;37.578;2023-03-25T09:07:45;97587.72;;;9.45;97.20
35489;BME280;21602;55.670;37.578;2023-03-25T09:10:13;97581.28;;;9.51;97.15
35489;BME280;21602;55.670;37.578;2023-03-25T09:12:39;97581.81;;;9.53;97.24
35489;BME280;21602;55.670;37.578;2023-03-25T09:15:06;97578.59;;;9.61;97.42
35489;BME280;21602;55.670;37.578;2023-03-25T09:17:32;97587.66;;;9.70;97.03
35489;BME280;21602;55.670;37.578;2023-03-25T09:19:59;97583.09;;;9.81;96.96
35489;BME280;21602;55.670;37.578;2023-03-25T09:22:25;97583.84;;;9.87;96.47
35489;BME280;21602;55.670;37.578;2023-03-25T09:25:10;97577.47;;;9.88;96.45
35489;BME280;21602;55.670;37.578;2023-03-25T09:27:37;97580.97;;;9.78;97.00
35489;BME280;21602;55.670;37.578;2023-03-25T09:30:04;97573.78;;;9.79;96.86
35489;BME280;21602;55.670;37.578;2023-03-25T09:32:30;97580.69;;;9.80;97.07
35489;BME280;21602;55.670;37.578;2023-03-25T09:35:02;97586.56;;;9.77;97.12
35489;BME280;21602;55.670;37.578;2023-03-25T09:37:31;97579.09;;;9.68;97.79
35489;BME280;21602;55.670;37.578;2023-03-25T09:39:57;97580.72;;;9.69;97.94
35489;BME280;21602;55.670;37.578;2023-03-25T09:45:34;97597.19;;;9.87;97.23
35489;BME280;21602;55.670;37.578;2023-03-25T09:48:44;97602.50;;;9.92;97.23
35489;BME280;21602;55.670;37.578;2023-03-25T09:51:32;97606.50;;;9.94;96.97
35489;BME280;21602;55.670;37.578;2023-03-25T09:57:15;97591.50;;;10.14;96.70
35489;BME280;21602;55.670;37.578;2023-03-25T10:00:02;97604.53;;;10.15;96.77
35489;BME280;21602;55.670;37.578;2023-03-25T10:03:10;97614.13;;;10.21;96.69
35489;BME280;21602;55.670;37.578;2023-03-25T10:05:49;97613.88;;;10.18;97.00
35489;BME280;21602;55.670;37.578;2023-03-25T10:11:36;97607.78;;;10.12;97.05
35489;BME280;21602;55.670;37.578;2023-03-25T10:14:43;97611.00;;;10.04;96.91
35489;BME280;21602;55.670;37.578;2023-03-25T10:20:11;97599.72;;;10.22;96.86
35489;BME280;21602;55.670;37.578;2023-03-25T10:28:26;97607.88;;;10.51;96.58
35489;BME280;21602;55.670;37.578;2023-03-25T10:30:53;97610.19;;;10.63;95.95
35489;BME280;21602;55.670;37.578;2023-03-25T10:35:57;97604.88;;;10.63;95.36
35489;BME280;21602;55.670;37.578;2023-03-25T10:38:25;97622.00;;;10.52;95.81
35489;BME280;21602;55.670;37.578;2023-03-25T10:41:25;97613.53;;;10.45;95.82
35489;BME280;21602;55.670;37.578;2023-03-25T10:43:52;97602.88;;;10.35;96.40
35489;BME280;21602;55.670;37.578;2023-03-25T10:46:38;97600.00;;;10.31;97.23
35489;BME280;21602;55.670;37.578;2023-03-25T10:49:17;97615.13;;;10.46;96.36
35489;BME280;21602;55.670;37.578;2023-03-25T10:51:47;97621.47;;;10.55;96.07
35489;BME280;21602;55.670;37.578;2023-03-25T10:54:14;97623.03;;;10.61;96.28
35489;BME280;21602;55.670;37.578;2023-03-25T11:01:58;97601.47;;;10.92;96.03
35489;BME280;21602;55.670;37.578;2023-03-25T11:04:31;97606.19;;;11.05;95.25
35489;BME280;21602;55.670;37.578;2023-03-25T11:06:59;97619.47;;;11.15;95.05
35489;BME280;21602;55.670;37.578;2023-03-25T11:09:29;97607.38;;;11.23;94.55
35489;BME280;21602;55.670;37.578;2023-03-25T11:12:02;97614.91;;;11.21;94.26
35489;BME280;21602;55.670;37.578;2023-03-25T11:14:29;97611.75;;;11.14;93.92
35489;BME280;21602;55.670;37.578;2023-03-25T11:16:58;97614.75;;;11.07;94.38
35489;BME280;21602;55.670;37.578;2023-03-25T11:22:30;97611.53;;;11.05;94.57
35489;BME280;21602;55.670;37.578;2023-03-25T11:25:24;97614.16;;;11.10;94.17
35489;BME280;21602;55.670;37.578;2023-03-25T11:27:57;97612.09;;;11.02;94.72
35489;BME280;21602;55.670;37.578;2023-03-25T11:31:11;97606.59;;;10.88;94.74
35489;BME280;21602;55.670;37.578;2023-03-25T11:33:39;97610.34;;;10.87;95.11
35489;BME280;21602;55.670;37.578;2023-03-25T11:38:45;97604.22;;;10.82;95.33
35489;BME280;21602;55.670;37.578;2023-03-25T11:41:13;97593.50;;;10.87;95.00
35489;BME280;21602;55.670;37.578;2023-03-25T11:43:39;97598.06;;;10.86;95.02
35489;BME280;21602;55.670;37.578;2023-03-25T11:46:12;97602.59;;;10.86;95.52
35489;BME280;21602;55.670;37.578;2023-03-25T11:48:40;97609.53;;;10.87;95.26
35489;BME280;21602;55.670;37.578;2023-03-25T11:51:30;97609.31;;;10.83;95.41
35489;BME280;21602;55.670;37.578;2023-03-25T11:57:06;97608.50;;;10.77;95.49
35489;BME280;21602;55.670;37.578;2023-03-25T11:59:44;97603.72;;;10.80;95.92
35489;BME280;21602;55.670;37.578;2023-03-25T12:02:39;97617.81;;;10.85;96.02
35489;BME280;21602;55.670;37.578;2023-03-25T12:34:22;97635.00;;;10.69;96.93
35489;BME280;21602;55.670;37.578;2023-03-25T12:57:45;97628.19;;;10.92;95.28
35489;BME280;21602;55.670;37.578;2023-03-25T13:12:41;97617.44;;;11.02;95.15
35489;BME280;21602;55.670;37.578;2023-03-25T13:15:21;97611.78;;;11.09;95.37
35489;BME280;21602;55.670;37.578;2023-03-25T13:17:59;97610.63;;;11.20;95.22
35489;BME280;21602;55.670;37.578;2023-03-25T13:20:30;97619.47;;;11.15;94.89
35489;BME280;21602;55.670;37.578;2023-03-25T13:23:03;97616.56;;;11.12;94.58
35489;BME280;21602;55.670;37.578;2023-03-25T13:25:47;97618.50;;;11.01;94.71
35489;BME280;21602;55.670;37.578;2023-03-25T13:28:21;97626.47;;;11.06;94.57
35489;BME280;21602;55.670;37.578;2023-03-25T13:30:48;97623.28;;;11.04;94.60
35489;BME280;21602;55.670;37.578;2023-03-25T13:33:18;97619.53;;;11.05;94.53
35489;BME280;21602;55.670;37.578;2023-03-25T13:36:07;97612.53;;;11.14;94.30
35489;BME280;21602;55.670;37.578;2023-03-25T13:38:40;97600.06;;;11.05;94.11
35489;BME280;21602;55.670;37.578;2023-03-25T13:41:33;97613.63;;;11.13;94.50
35489;BME280;21602;55.670;37.578;2023-03-25T13:44:09;97620.00;;;11.17;94.19
35489;BME280;21602;55.670;37.578;2023-03-25T13:46:46;97624.25;;;11.18;93.83
35489;BME280;21602;55.670;37.578;2023-03-25T13:52:07;97637.16;;;11.11;94.25
35489;BME280;21602;55.670;37.578;2023-03-25T13:54:59;97625.06;;;11.19;94.28
35489;BME280;21602;55.670;37.578;2023-03-25T13:57:58;97637.47;;;11.34;93.80
35489;BME280;21602;55.670;37.578;2023-03-25T14:12:44;97632.19;;;11.28;93.61
35489;BME280;21602;55.670;37.578;2023-03-25T14:15:21;97625.75;;;11.29;93.38
35489;BME280;21602;55.670;37.578;2023-03-25T14:17:52;97627.63;;;11.29;93.29
35489;BME280;21602;55.670;37.578;2023-03-25T14:20:34;97625.53;;;11.26;93.14
35489;BME280;21602;55.670;37.578;2023-03-25T14:23:25;97617.88;;;11.14;93.31
35489;BME280;21602;55.670;37.578;2023-03-25T14:28:46;97625.47;;;11.02;93.73
35489;BME280;21602;55.670;37.578;2023-03-25T14:32:06;97626.50;;;11.01;93.72
35489;BME280;21602;55.670;37.578;2023-03-25T14:44:45;97627.69;;;10.85;94.22
35489;BME280;21602;55.670;37.578;2023-03-25T14:47:39;97634.09;;;10.89;94.11
35489;BME280;21602;55.670;37.578;2023-03-25T14:53:11;97645.38;;;10.75;94.56
35489;BME280;21602;55.670;37.578;2023-03-25T14:55:59;97649.63;;;10.76;94.42
35489;BME280;21602;55.670;37.578;2023-03-25T14:58:50;97652.31;;;10.71;94.91
35489;BME280;21602;55.670;37.578;2023-03-25T15:01:19;97651.03;;;10.69;95.13
35489;BME280;21602;55.670;37.578;2023-03-25T15:06:40;97647.56;;;10.68;95.47
35489;BME280;21602;55.670;37.578;2023-03-25T15:09:10;97652.09;;;10.63;95.34
35489;BME280;21602;55.670;37.578;2023-03-25T15:11:43;97645.75;;;10.59;95.72
35489;BME280;21602;55.670;37.578;2023-03-25T15:14:14;97643.59;;;10.61;95.98
35489;BME280;21602;55.670;37.578;2023-03-25T15:23:27;97647.59;;;10.58;96.15
35489;BME280;21602;55.670;37.578;2023-03-25T15:31:36;97669.28;;;10.41;97.34
35489;BME280;21602;55.670;37.578;2023-03-25T15:34:22;97666.31;;;10.48;96.57
35489;BME280;21602;55.670;37.578;2023-03-25T15:45:41;97677.56;;;10.45;96.88
35489;BME280;21602;55.670;37.578;2023-03-25T15:48:20;97670.09;;;10.37;97.13
35489;BME280;21602;55.670;37.578;2023-03-25T15:51:42;97674.66;;;10.36;97.17
35489;BME280;21602;55.670;37.578;2023-03-25T15:54:43;97683.44;;;10.42;97.22
35489;BME280;21602;55.670;37.578;2023-03-25T16:05:36;97674.91;;;10.30;97.79
35489;BME280;21602;55.670;37.578;2023-03-25T16:08:14;97677.56;;;10.35;98.11
35489;BME280;21602;55.670;37.578;2023-03-25T16:10:41;97686.66;;;10.34;97.85
35489;BME280;21602;55.670;37.578;2023-03-25T16:13:12;97679.72;;;10.33;97.49
35489;BME280;21602;55.670;37.578;2023-03-25T16:15:42;97680.81;;;10.32;97.72
35489;BME280;21602;55.670;37.578;2023-03-25T16:18:27;97684.53;;;10.31;97.72
35489;BME280;21602;55.670;37.578;2023-03-25T16:21:11;97694.16;;;10.21;98.15
35489;BME280;21602;55.670;37.578;2023-03-25T16:23:37;97692.28;;;10.22;98.03
35489;BME280;21602;55.670;37.578;2023-03-25T16:26:04;97692.28;;;10.22;98.36
35489;BME280;21602;55.670;37.578;2023-03-25T16:28:48;97703.72;;;10.22;98.27
35489;BME280;21602;55.670;37.578;2023-03-25T16:31:33;97696.00;;;10.21;98.95
35489;BME280;21602;55.670;37.578;2023-03-25T16:34:14;97698.41;;;10.22;98.58
35489;BME280;21602;55.670;37.578;2023-03-25T16:36:52;97700.53;;;10.20;98.49
35489;BME280;21602;55.670;37.578;2023-03-25T16:40:38;97706.44;;;10.12;99.07
35489;BME280;21602;55.670;37.578;2023-03-25T16:43:24;97706.16;;;10.14;98.96